sensor_id;sensor_type;location;lat;lon;timestamp;temperature;humidity
75621;DHT22;64574;48.506;-2.750;2024-03-29T00:01:20;7.80;75.30
75621;DHT22;64574;48.506;-2.750;2024-03-29T00:03:46;7.90;75.20
75621;DHT22;64574;48.506;-2.750;2024-03-29T00:06:11;7.80;75.20
75621;DHT22;64574;48.506;-2.750;2024-03-29T00:08:37;7.80;75.30
75621;DHT22;64574;48.506;-2.750;2024-03-29T00:11:03;7.80;75.50
75621;DHT22;64574;48.506;-2.750;2024-03-29T00:13:29;7.70;75.50
75621;DHT22;64574;48.506;-2.750;2024-03-29T00:15:54;7.50;75.60
75621;DHT22;64574;48.506;-2.750;2024-03-29T00:18:20;7.50;75.70
75621;DHT22;64574;48.506;-2.750;2024-03-29T00:20:45;7.50;76.10
75621;DHT22;64574;48.506;-2.750;2024-03-29T00:23:11;7.50;75.90
75621;DHT22;64574;48.506;-2.750;2024-03-29T00:25:36;7.50;76.00
75621;DHT22;64574;48.506;-2.750;2024-03-29T00:28:02;7.40;76.10
75621;DHT22;64574;48.506;-2.750;2024-03-29T00:30:28;7.50;76.20
75621;DHT22;64574;48.506;-2.750;2024-03-29T00:32:54;7.50;76.20
75621;DHT22;64574;48.506;-2.750;2024-03-29T00:35:19;7.40;76.60
75621;DHT22;64574;48.506;-2.750;2024-03-29T00:37:46;7.40;76.60
75621;DHT22;64574;48.506;-2.750;2024-03-29T00:40:11;7.20;77.20
75621;DHT22;64574;48.506;-2.750;2024-03-29T00:42:37;7.20;77.50
75621;DHT22;64574;48.506;-2.750;2024-03-29T00:45:02;7.40;76.90
75621;DHT22;64574;48.506;-2.750;2024-03-29T00:47:28;7.40;76.90
75621;DHT22;64574;48.506;-2.750;2024-03-29T00:49:53;7.40;77.00
75621;DHT22;64574;48.506;-2.750;2024-03-29T00:52:19;7.20;77.30
75621;DHT22;64574;48.506;-2.750;2024-03-29T00:54:44;7.40;77.50
75621;DHT22;64574;48.506;-2.750;2024-03-29T00:57:10;7.30;77.30
75621;DHT22;64574;48.506;-2.750;2024-03-29T00:59:38;7.20;77.60
75621;DHT22;64574;48.506;-2.750;2024-03-29T01:02:04;7.30;77.70
75621;DHT22;64574;48.506;-2.750;2024-03-29T01:04:29;7.30;77.60
75621;DHT22;64574;48.506;-2.750;2024-03-29T01:06:55;7.20;78.00
75621;DHT22;64574;48.506;-2.750;2024-03-29T01:09:21;7.30;77.80
75621;DHT22;64574;48.506;-2.750;2024-03-29T01:11:47;7.30;78.00
75621;DHT22;64574;48.506;-2.750;2024-03-29T01:14:12;7.20;78.00
75621;DHT22;64574;48.506;-2.750;2024-03-29T01:16:38;7.30;78.20
75621;DHT22;64574;48.506;-2.750;2024-03-29T01:19:03;7.40;78.00
75621;DHT22;64574;48.506;-2.750;2024-03-29T01:21:30;7.50;77.90
75621;DHT22;64574;48.506;-2.750;2024-03-29T01:23:55;7.40;78.00
75621;DHT22;64574;48.506;-2.750;2024-03-29T01:26:21;7.40;77.90
75621;DHT22;64574;48.506;-2.750;2024-03-29T01:28:46;7.30;78.00
75621;DHT22;64574;48.506;-2.750;2024-03-29T01:31:12;7.30;78.40
75621;DHT22;64574;48.506;-2.750;2024-03-29T01:33:38;7.40;78.40
75621;DHT22;64574;48.506;-2.750;2024-03-29T01:36:05;7.30;78.60
75621;DHT22;64574;48.506;-2.750;2024-03-29T01:38:31;7.20;78.80
75621;DHT22;64574;48.506;-2.750;2024-03-29T01:40:56;7.20;79.10
75621;DHT22;64574;48.506;-2.750;2024-03-29T01:43:22;7.20;79.20
75621;DHT22;64574;48.506;-2.750;2024-03-29T01:45:48;7.20;79.10
75621;DHT22;64574;48.506;-2.750;2024-03-29T01:48:15;7.20;79.10
75621;DHT22;64574;48.506;-2.750;2024-03-29T01:50:41;7.20;79.30
75621;DHT22;64574;48.506;-2.750;2024-03-29T01:53:07;7.20;79.50
75621;DHT22;64574;48.506;-2.750;2024-03-29T01:55:33;7.20;79.50
75621;DHT22;64574;48.506;-2.750;2024-03-29T01:57:59;7.20;79.70
75621;DHT22;64574;48.506;-2.750;2024-03-29T02:00:25;7.20;79.60
75621;DHT22;64574;48.506;-2.750;2024-03-29T02:02:52;7.20;79.90
75621;DHT22;64574;48.506;-2.750;2024-03-29T02:05:17;7.20;79.80
75621;DHT22;64574;48.506;-2.750;2024-03-29T02:07:44;7.20;80.00
75621;DHT22;64574;48.506;-2.750;2024-03-29T02:10:12;7.30;79.70
75621;DHT22;64574;48.506;-2.750;2024-03-29T02:12:38;7.30;79.70
75621;DHT22;64574;48.506;-2.750;2024-03-29T02:15:04;7.30;79.90
75621;DHT22;64574;48.506;-2.750;2024-03-29T02:17:31;7.40;79.70
75621;DHT22;64574;48.506;-2.750;2024-03-29T02:19:57;7.30;79.90
75621;DHT22;64574;48.506;-2.750;2024-03-29T02:22:23;7.30;80.10
75621;DHT22;64574;48.506;-2.750;2024-03-29T02:24:49;7.30;80.10
75621;DHT22;64574;48.506;-2.750;2024-03-29T02:27:14;7.30;80.20
75621;DHT22;64574;48.506;-2.750;2024-03-29T02:29:41;7.30;80.40
75621;DHT22;64574;48.506;-2.750;2024-03-29T02:32:07;7.40;80.20
75621;DHT22;64574;48.506;-2.750;2024-03-29T02:34:32;7.40;80.40
75621;DHT22;64574;48.506;-2.750;2024-03-29T02:36:58;7.40;80.40
75621;DHT22;64574;48.506;-2.750;2024-03-29T02:39:24;7.50;80.50
75621;DHT22;64574;48.506;-2.750;2024-03-29T02:41:50;7.40;80.50
75621;DHT22;64574;48.506;-2.750;2024-03-29T02:44:15;7.50;80.70
75621;DHT22;64574;48.506;-2.750;2024-03-29T02:46:41;7.50;80.70
75621;DHT22;64574;48.506;-2.750;2024-03-29T02:49:07;7.40;81.00
75621;DHT22;64574;48.506;-2.750;2024-03-29T02:51:33;7.50;81.00
75621;DHT22;64574;48.506;-2.750;2024-03-29T02:53:58;7.50;80.90
75621;DHT22;64574;48.506;-2.750;2024-03-29T02:56:24;7.50;81.00
75621;DHT22;64574;48.506;-2.750;2024-03-29T02:58:49;7.50;81.30
75621;DHT22;64574;48.506;-2.750;2024-03-29T03:01:15;7.60;81.10
75621;DHT22;64574;48.506;-2.750;2024-03-29T03:03:40;7.50;81.20
75621;DHT22;64574;48.506;-2.750;2024-03-29T03:06:06;7.60;81.10
75621;DHT22;64574;48.506;-2.750;2024-03-29T03:08:31;7.60;80.90
75621;DHT22;64574;48.506;-2.750;2024-03-29T03:11:15;7.50;81.20
75621;DHT22;64574;48.506;-2.750;2024-03-29T03:13:41;7.60;81.20
75621;DHT22;64574;48.506;-2.750;2024-03-29T03:16:06;7.60;81.10
75621;DHT22;64574;48.506;-2.750;2024-03-29T03:18:32;7.60;81.20
75621;DHT22;64574;48.506;-2.750;2024-03-29T03:20:57;7.60;81.50
75621;DHT22;64574;48.506;-2.750;2024-03-29T03:23:23;7.60;81.70
75621;DHT22;64574;48.506;-2.750;2024-03-29T03:25:59;7.60;81.80
75621;DHT22;64574;48.506;-2.750;2024-03-29T03:28:25;7.60;81.80
75621;DHT22;64574;48.506;-2.750;2024-03-29T03:30:51;7.70;81.70
75621;DHT22;64574;48.506;-2.750;2024-03-29T03:33:17;7.70;81.90
75621;DHT22;64574;48.506;-2.750;2024-03-29T03:35:43;7.80;81.80
75621;DHT22;64574;48.506;-2.750;2024-03-29T03:38:08;7.80;81.60
75621;DHT22;64574;48.506;-2.750;2024-03-29T03:40:34;7.80;81.70
75621;DHT22;64574;48.506;-2.750;2024-03-29T03:43:00;7.80;81.80
75621;DHT22;64574;48.506;-2.750;2024-03-29T03:45:26;7.80;81.70
75621;DHT22;64574;48.506;-2.750;2024-03-29T03:47:51;7.70;81.90
75621;DHT22;64574;48.506;-2.750;2024-03-29T03:50:17;7.80;82.00
75621;DHT22;64574;48.506;-2.750;2024-03-29T03:52:42;7.80;81.90
75621;DHT22;64574;48.506;-2.750;2024-03-29T03:55:08;7.80;81.80
75621;DHT22;64574;48.506;-2.750;2024-03-29T03:57:33;7.80;81.70
75621;DHT22;64574;48.506;-2.750;2024-03-29T03:59:59;7.80;81.50
75621;DHT22;64574;48.506;-2.750;2024-03-29T04:02:25;7.80;81.70
75621;DHT22;64574;48.506;-2.750;2024-03-29T04:04:50;7.80;81.50
75621;DHT22;64574;48.506;-2.750;2024-03-29T04:07:16;7.80;81.70
75621;DHT22;64574;48.506;-2.750;2024-03-29T04:09:41;7.80;81.80
75621;DHT22;64574;48.506;-2.750;2024-03-29T04:12:07;7.80;81.70
75621;DHT22;64574;48.506;-2.750;2024-03-29T04:14:32;7.80;81.60
75621;DHT22;64574;48.506;-2.750;2024-03-29T04:16:58;7.80;81.50
75621;DHT22;64574;48.506;-2.750;2024-03-29T04:19:23;7.90;81.20
75621;DHT22;64574;48.506;-2.750;2024-03-29T04:21:49;7.90;81.20
75621;DHT22;64574;48.506;-2.750;2024-03-29T04:24:14;7.90;81.10
75621;DHT22;64574;48.506;-2.750;2024-03-29T04:26:40;7.90;81.10
75621;DHT22;64574;48.506;-2.750;2024-03-29T04:29:05;7.90;81.20
75621;DHT22;64574;48.506;-2.750;2024-03-29T04:31:31;7.90;80.60
75621;DHT22;64574;48.506;-2.750;2024-03-29T04:33:56;7.90;79.50
75621;DHT22;64574;48.506;-2.750;2024-03-29T04:36:22;7.80;79.10
75621;DHT22;64574;48.506;-2.750;2024-03-29T04:38:47;7.80;79.00
75621;DHT22;64574;48.506;-2.750;2024-03-29T04:41:13;7.80;79.00
75621;DHT22;64574;48.506;-2.750;2024-03-29T04:43:39;7.80;78.90
75621;DHT22;64574;48.506;-2.750;2024-03-29T04:46:12;7.90;78.70
75621;DHT22;64574;48.506;-2.750;2024-03-29T04:48:38;7.90;77.80
75621;DHT22;64574;48.506;-2.750;2024-03-29T04:51:05;7.90;76.10
75621;DHT22;64574;48.506;-2.750;2024-03-29T04:53:31;7.90;75.20
75621;DHT22;64574;48.506;-2.750;2024-03-29T04:55:57;7.90;75.20
75621;DHT22;64574;48.506;-2.750;2024-03-29T04:58:23;7.80;75.30
75621;DHT22;64574;48.506;-2.750;2024-03-29T05:00:49;7.80;75.50
75621;DHT22;64574;48.506;-2.750;2024-03-29T05:03:18;7.80;75.30
75621;DHT22;64574;48.506;-2.750;2024-03-29T05:05:44;7.80;75.50
75621;DHT22;64574;48.506;-2.750;2024-03-29T05:08:10;7.80;75.50
75621;DHT22;64574;48.506;-2.750;2024-03-29T05:10:35;7.80;75.80
75621;DHT22;64574;48.506;-2.750;2024-03-29T05:13:01;7.80;75.80
75621;DHT22;64574;48.506;-2.750;2024-03-29T05:15:26;7.80;75.80
75621;DHT22;64574;48.506;-2.750;2024-03-29T05:17:52;7.80;75.60
75621;DHT22;64574;48.506;-2.750;2024-03-29T05:20:18;7.70;75.20
75621;DHT22;64574;48.506;-2.750;2024-03-29T05:22:44;7.70;75.00
75621;DHT22;64574;48.506;-2.750;2024-03-29T05:25:09;7.70;75.00
75621;DHT22;64574;48.506;-2.750;2024-03-29T05:27:35;7.70;74.80
75621;DHT22;64574;48.506;-2.750;2024-03-29T05:30:01;7.70;74.90
75621;DHT22;64574;48.506;-2.750;2024-03-29T05:32:28;7.80;74.70
75621;DHT22;64574;48.506;-2.750;2024-03-29T05:34:54;7.70;75.00
75621;DHT22;64574;48.506;-2.750;2024-03-29T05:37:19;7.60;75.10
75621;DHT22;64574;48.506;-2.750;2024-03-29T05:39:45;7.60;75.40
75621;DHT22;64574;48.506;-2.750;2024-03-29T05:42:12;7.50;75.80
75621;DHT22;64574;48.506;-2.750;2024-03-29T05:44:38;7.50;75.90
75621;DHT22;64574;48.506;-2.750;2024-03-29T05:47:03;7.60;75.90
75621;DHT22;64574;48.506;-2.750;2024-03-29T05:49:32;7.50;76.30
75621;DHT22;64574;48.506;-2.750;2024-03-29T05:51:57;7.50;77.00
75621;DHT22;64574;48.506;-2.750;2024-03-29T05:54:23;7.50;77.30
75621;DHT22;64574;48.506;-2.750;2024-03-29T05:56:49;7.50;77.70
75621;DHT22;64574;48.506;-2.750;2024-03-29T05:59:15;7.50;78.10
75621;DHT22;64574;48.506;-2.750;2024-03-29T06:01:40;7.50;78.40
75621;DHT22;64574;48.506;-2.750;2024-03-29T06:04:06;7.50;78.60
75621;DHT22;64574;48.506;-2.750;2024-03-29T06:06:34;7.50;78.90
75621;DHT22;64574;48.506;-2.750;2024-03-29T06:08:59;7.50;79.20
75621;DHT22;64574;48.506;-2.750;2024-03-29T06:11:25;7.50;79.10
75621;DHT22;64574;48.506;-2.750;2024-03-29T06:13:50;7.50;79.20
75621;DHT22;64574;48.506;-2.750;2024-03-29T06:16:23;7.50;79.50
75621;DHT22;64574;48.506;-2.750;2024-03-29T06:19:07;7.40;79.60
75621;DHT22;64574;48.506;-2.750;2024-03-29T06:21:33;7.40;79.80
75621;DHT22;64574;48.506;-2.750;2024-03-29T06:24:07;7.40;79.80
75621;DHT22;64574;48.506;-2.750;2024-03-29T06:26:33;7.40;80.00
75621;DHT22;64574;48.506;-2.750;2024-03-29T06:28:59;7.40;80.30
75621;DHT22;64574;48.506;-2.750;2024-03-29T06:31:25;7.50;80.10
75621;DHT22;64574;48.506;-2.750;2024-03-29T06:33:50;7.50;80.00
75621;DHT22;64574;48.506;-2.750;2024-03-29T06:36:16;7.60;79.80
75621;DHT22;64574;48.506;-2.750;2024-03-29T06:38:41;7.60;79.70
75621;DHT22;64574;48.506;-2.750;2024-03-29T06:41:07;7.70;79.70
75621;DHT22;64574;48.506;-2.750;2024-03-29T06:43:33;7.60;79.80
75621;DHT22;64574;48.506;-2.750;2024-03-29T06:45:58;7.60;79.80
75621;DHT22;64574;48.506;-2.750;2024-03-29T06:48:24;7.70;79.70
75621;DHT22;64574;48.506;-2.750;2024-03-29T06:50:50;7.60;79.40
75621;DHT22;64574;48.506;-2.750;2024-03-29T06:53:16;7.70;79.20
75621;DHT22;64574;48.506;-2.750;2024-03-29T06:55:41;7.70;78.50
75621;DHT22;64574;48.506;-2.750;2024-03-29T06:58:07;7.80;78.20
75621;DHT22;64574;48.506;-2.750;2024-03-29T07:00:32;7.80;78.00
75621;DHT22;64574;48.506;-2.750;2024-03-29T07:02:58;7.90;77.90
75621;DHT22;64574;48.506;-2.750;2024-03-29T07:05:24;8.00;77.80
75621;DHT22;64574;48.506;-2.750;2024-03-29T07:07:49;7.90;77.80
75621;DHT22;64574;48.506;-2.750;2024-03-29T07:10:15;8.00;77.80
75621;DHT22;64574;48.506;-2.750;2024-03-29T07:12:40;8.00;77.80
75621;DHT22;64574;48.506;-2.750;2024-03-29T07:15:06;7.90;78.00
75621;DHT22;64574;48.506;-2.750;2024-03-29T07:17:32;7.90;78.00
75621;DHT22;64574;48.506;-2.750;2024-03-29T07:19:57;7.90;78.00
75621;DHT22;64574;48.506;-2.750;2024-03-29T07:22:23;7.90;78.20
75621;DHT22;64574;48.506;-2.750;2024-03-29T07:24:48;7.90;78.40
75621;DHT22;64574;48.506;-2.750;2024-03-29T07:27:14;7.90;78.50
75621;DHT22;64574;48.506;-2.750;2024-03-29T07:29:42;7.90;78.70
75621;DHT22;64574;48.506;-2.750;2024-03-29T07:32:09;8.00;78.70
75621;DHT22;64574;48.506;-2.750;2024-03-29T07:34:35;8.10;78.60
75621;DHT22;64574;48.506;-2.750;2024-03-29T07:37:01;8.20;78.60
75621;DHT22;64574;48.506;-2.750;2024-03-29T07:39:27;8.30;78.70
75621;DHT22;64574;48.506;-2.750;2024-03-29T07:41:52;8.40;79.00
75621;DHT22;64574;48.506;-2.750;2024-03-29T07:44:18;8.40;79.00
75621;DHT22;64574;48.506;-2.750;2024-03-29T07:46:43;8.40;79.00
75621;DHT22;64574;48.506;-2.750;2024-03-29T07:49:11;8.50;79.40
75621;DHT22;64574;48.506;-2.750;2024-03-29T07:51:36;8.60;78.70
75621;DHT22;64574;48.506;-2.750;2024-03-29T07:54:02;8.70;78.90
75621;DHT22;64574;48.506;-2.750;2024-03-29T07:56:28;8.70;78.70
75621;DHT22;64574;48.506;-2.750;2024-03-29T07:58:53;8.70;79.10
75621;DHT22;64574;48.506;-2.750;2024-03-29T08:01:22;8.70;79.00
75621;DHT22;64574;48.506;-2.750;2024-03-29T08:03:50;8.80;79.00
75621;DHT22;64574;48.506;-2.750;2024-03-29T08:06:15;8.80;79.20
75621;DHT22;64574;48.506;-2.750;2024-03-29T08:08:43;8.80;78.70
75621;DHT22;64574;48.506;-2.750;2024-03-29T08:11:09;8.80;78.40
75621;DHT22;64574;48.506;-2.750;2024-03-29T08:13:35;8.80;78.50
75621;DHT22;64574;48.506;-2.750;2024-03-29T08:16:01;8.80;78.60
75621;DHT22;64574;48.506;-2.750;2024-03-29T08:18:27;8.90;78.90
75621;DHT22;64574;48.506;-2.750;2024-03-29T08:20:53;8.90;78.90
75621;DHT22;64574;48.506;-2.750;2024-03-29T08:23:22;8.90;78.90
75621;DHT22;64574;48.506;-2.750;2024-03-29T08:25:48;8.90;79.20
75621;DHT22;64574;48.506;-2.750;2024-03-29T08:28:14;8.90;78.80
75621;DHT22;64574;48.506;-2.750;2024-03-29T08:30:40;9.00;78.90
75621;DHT22;64574;48.506;-2.750;2024-03-29T08:33:05;9.20;79.20
75621;DHT22;64574;48.506;-2.750;2024-03-29T08:35:32;9.30;78.70
75621;DHT22;64574;48.506;-2.750;2024-03-29T08:37:57;9.40;78.90
75621;DHT22;64574;48.506;-2.750;2024-03-29T08:40:23;9.40;79.10
75621;DHT22;64574;48.506;-2.750;2024-03-29T08:42:49;9.30;79.00
75621;DHT22;64574;48.506;-2.750;2024-03-29T08:45:15;9.20;79.10
75621;DHT22;64574;48.506;-2.750;2024-03-29T08:47:40;9.20;78.70
75621;DHT22;64574;48.506;-2.750;2024-03-29T08:50:06;9.20;79.10
75621;DHT22;64574;48.506;-2.750;2024-03-29T08:52:32;9.00;79.10
75621;DHT22;64574;48.506;-2.750;2024-03-29T08:54:57;9.00;79.40
75621;DHT22;64574;48.506;-2.750;2024-03-29T08:57:23;9.20;79.70
75621;DHT22;64574;48.506;-2.750;2024-03-29T08:59:48;9.40;79.30
75621;DHT22;64574;48.506;-2.750;2024-03-29T09:02:14;9.40;79.00
75621;DHT22;64574;48.506;-2.750;2024-03-29T09:04:39;9.40;78.30
75621;DHT22;64574;48.506;-2.750;2024-03-29T09:07:05;9.40;77.20
75621;DHT22;64574;48.506;-2.750;2024-03-29T09:09:31;9.30;76.50
75621;DHT22;64574;48.506;-2.750;2024-03-29T09:11:57;9.40;76.70
75621;DHT22;64574;48.506;-2.750;2024-03-29T09:14:22;9.40;76.90
75621;DHT22;64574;48.506;-2.750;2024-03-29T09:16:49;9.50;76.30
75621;DHT22;64574;48.506;-2.750;2024-03-29T09:19:15;9.50;75.80
75621;DHT22;64574;48.506;-2.750;2024-03-29T09:21:40;9.50;75.60
75621;DHT22;64574;48.506;-2.750;2024-03-29T09:24:06;9.60;75.50
75621;DHT22;64574;48.506;-2.750;2024-03-29T09:26:32;9.70;74.50
75621;DHT22;64574;48.506;-2.750;2024-03-29T09:28:57;9.70;74.80
75621;DHT22;64574;48.506;-2.750;2024-03-29T09:31:23;9.80;75.40
75621;DHT22;64574;48.506;-2.750;2024-03-29T09:33:49;9.80;74.30
75621;DHT22;64574;48.506;-2.750;2024-03-29T09:36:21;10.00;75.40
75621;DHT22;64574;48.506;-2.750;2024-03-29T09:38:51;10.00;75.50
75621;DHT22;64574;48.506;-2.750;2024-03-29T09:41:18;10.10;75.10
75621;DHT22;64574;48.506;-2.750;2024-03-29T09:43:44;10.20;73.40
75621;DHT22;64574;48.506;-2.750;2024-03-29T09:46:11;10.30;73.60
75621;DHT22;64574;48.506;-2.750;2024-03-29T09:48:38;10.40;73.30
75621;DHT22;64574;48.506;-2.750;2024-03-29T09:51:05;10.40;72.60
75621;DHT22;64574;48.506;-2.750;2024-03-29T09:53:34;10.40;72.20
75621;DHT22;64574;48.506;-2.750;2024-03-29T09:56:00;10.70;71.80
75621;DHT22;64574;48.506;-2.750;2024-03-29T09:58:25;10.80;70.20
75621;DHT22;64574;48.506;-2.750;2024-03-29T10:00:51;10.80;69.40
75621;DHT22;64574;48.506;-2.750;2024-03-29T10:03:17;11.00;69.40
75621;DHT22;64574;48.506;-2.750;2024-03-29T10:05:46;11.00;68.60
75621;DHT22;64574;48.506;-2.750;2024-03-29T10:08:13;11.00;68.90
75621;DHT22;64574;48.506;-2.750;2024-03-29T10:10:40;10.90;68.50
75621;DHT22;64574;48.506;-2.750;2024-03-29T10:13:06;10.70;69.50
75621;DHT22;64574;48.506;-2.750;2024-03-29T10:15:31;10.60;69.00
75621;DHT22;64574;48.506;-2.750;2024-03-29T10:18:02;10.60;69.30
75621;DHT22;64574;48.506;-2.750;2024-03-29T10:20:28;10.80;70.10
75621;DHT22;64574;48.506;-2.750;2024-03-29T10:22:53;10.70;69.70
75621;DHT22;64574;48.506;-2.750;2024-03-29T10:25:21;10.60;70.00
75621;DHT22;64574;48.506;-2.750;2024-03-29T10:27:46;10.80;70.40
75621;DHT22;64574;48.506;-2.750;2024-03-29T10:30:12;10.80;69.60
75621;DHT22;64574;48.506;-2.750;2024-03-29T10:32:42;10.70;69.80
75621;DHT22;64574;48.506;-2.750;2024-03-29T10:35:08;10.50;69.10
75621;DHT22;64574;48.506;-2.750;2024-03-29T10:37:34;10.50;69.10
75621;DHT22;64574;48.506;-2.750;2024-03-29T10:40:10;10.40;70.00
75621;DHT22;64574;48.506;-2.750;2024-03-29T10:42:39;10.30;68.50
75621;DHT22;64574;48.506;-2.750;2024-03-29T10:45:07;10.40;69.10
75621;DHT22;64574;48.506;-2.750;2024-03-29T10:47:33;10.60;70.60
75621;DHT22;64574;48.506;-2.750;2024-03-29T10:49:59;10.80;70.40
75621;DHT22;64574;48.506;-2.750;2024-03-29T10:52:25;10.80;69.30
75621;DHT22;64574;48.506;-2.750;2024-03-29T10:54:51;11.00;69.40
75621;DHT22;64574;48.506;-2.750;2024-03-29T10:57:21;11.10;68.20
75621;DHT22;64574;48.506;-2.750;2024-03-29T11:02:14;11.20;67.70
75621;DHT22;64574;48.506;-2.750;2024-03-29T11:04:43;11.40;66.80
75621;DHT22;64574;48.506;-2.750;2024-03-29T11:07:13;11.50;67.20
75621;DHT22;64574;48.506;-2.750;2024-03-29T11:09:41;11.30;67.00
75621;DHT22;64574;48.506;-2.750;2024-03-29T11:12:07;11.20;67.70
75621;DHT22;64574;48.506;-2.750;2024-03-29T11:14:37;11.10;68.80
75621;DHT22;64574;48.506;-2.750;2024-03-29T11:17:04;11.00;70.30
75621;DHT22;64574;48.506;-2.750;2024-03-29T11:19:30;10.70;72.90
75621;DHT22;64574;48.506;-2.750;2024-03-29T11:21:56;10.40;73.10
75621;DHT22;64574;48.506;-2.750;2024-03-29T11:24:25;10.40;73.30
75621;DHT22;64574;48.506;-2.750;2024-03-29T11:26:52;10.40;74.50
75621;DHT22;64574;48.506;-2.750;2024-03-29T11:29:21;10.30;75.70
75621;DHT22;64574;48.506;-2.750;2024-03-29T11:31:47;10.50;76.30
75621;DHT22;64574;48.506;-2.750;2024-03-29T11:34:14;10.50;75.60
75621;DHT22;64574;48.506;-2.750;2024-03-29T11:36:44;10.60;76.10
75621;DHT22;64574;48.506;-2.750;2024-03-29T11:39:19;10.60;75.80
75621;DHT22;64574;48.506;-2.750;2024-03-29T11:41:47;10.70;75.60
75621;DHT22;64574;48.506;-2.750;2024-03-29T11:44:13;10.80;76.40
75621;DHT22;64574;48.506;-2.750;2024-03-29T11:46:39;10.80;75.00
75621;DHT22;64574;48.506;-2.750;2024-03-29T11:49:05;10.80;72.60
75621;DHT22;64574;48.506;-2.750;2024-03-29T11:51:31;10.80;71.40
75621;DHT22;64574;48.506;-2.750;2024-03-29T11:53:57;11.00;69.50
75621;DHT22;64574;48.506;-2.750;2024-03-29T11:56:22;11.40;70.10
75621;DHT22;64574;48.506;-2.750;2024-03-29T11:58:48;11.50;69.00
75621;DHT22;64574;48.506;-2.750;2024-03-29T12:01:14;11.50;67.70
75621;DHT22;64574;48.506;-2.750;2024-03-29T12:03:40;11.50;67.60
75621;DHT22;64574;48.506;-2.750;2024-03-29T12:06:06;11.30;66.10
75621;DHT22;64574;48.506;-2.750;2024-03-29T12:08:32;11.10;67.40
75621;DHT22;64574;48.506;-2.750;2024-03-29T12:10:58;11.00;67.50
75621;DHT22;64574;48.506;-2.750;2024-03-29T12:13:24;11.10;67.60
75621;DHT22;64574;48.506;-2.750;2024-03-29T12:15:50;11.40;67.30
75621;DHT22;64574;48.506;-2.750;2024-03-29T12:18:15;11.50;66.60
75621;DHT22;64574;48.506;-2.750;2024-03-29T12:20:41;11.50;67.90
75621;DHT22;64574;48.506;-2.750;2024-03-29T12:23:08;11.40;71.20
75621;DHT22;64574;48.506;-2.750;2024-03-29T12:25:35;11.30;73.00
75621;DHT22;64574;48.506;-2.750;2024-03-29T12:28:01;11.30;73.00
75621;DHT22;64574;48.506;-2.750;2024-03-29T12:30:27;11.30;73.00
75621;DHT22;64574;48.506;-2.750;2024-03-29T12:33:05;11.50;72.50
75621;DHT22;64574;48.506;-2.750;2024-03-29T12:35:40;11.70;72.40
75621;DHT22;64574;48.506;-2.750;2024-03-29T12:38:06;11.70;70.40
75621;DHT22;64574;48.506;-2.750;2024-03-29T12:40:34;11.80;70.20
75621;DHT22;64574;48.506;-2.750;2024-03-29T12:43:04;12.00;69.10
75621;DHT22;64574;48.506;-2.750;2024-03-29T12:45:30;12.10;67.20
75621;DHT22;64574;48.506;-2.750;2024-03-29T12:47:56;12.00;66.90
75621;DHT22;64574;48.506;-2.750;2024-03-29T12:50:26;12.10;67.00
75621;DHT22;64574;48.506;-2.750;2024-03-29T12:52:56;12.10;67.60
75621;DHT22;64574;48.506;-2.750;2024-03-29T12:55:22;12.10;66.80
75621;DHT22;64574;48.506;-2.750;2024-03-29T12:57:48;12.10;66.80
75621;DHT22;64574;48.506;-2.750;2024-03-29T13:00:14;11.70;68.50
75621;DHT22;64574;48.506;-2.750;2024-03-29T13:02:39;11.30;68.10
75621;DHT22;64574;48.506;-2.750;2024-03-29T13:05:05;11.30;69.00
75621;DHT22;64574;48.506;-2.750;2024-03-29T13:07:31;11.40;69.40
75621;DHT22;64574;48.506;-2.750;2024-03-29T13:09:57;11.70;68.40
75621;DHT22;64574;48.506;-2.750;2024-03-29T13:12:29;11.50;68.90
75621;DHT22;64574;48.506;-2.750;2024-03-29T13:14:55;11.50;69.30
75621;DHT22;64574;48.506;-2.750;2024-03-29T13:17:21;11.50;69.20
75621;DHT22;64574;48.506;-2.750;2024-03-29T13:19:46;11.50;69.20
75621;DHT22;64574;48.506;-2.750;2024-03-29T13:22:12;11.50;66.90
75621;DHT22;64574;48.506;-2.750;2024-03-29T13:24:37;11.70;66.50
75621;DHT22;64574;48.506;-2.750;2024-03-29T13:27:03;12.10;66.70
75621;DHT22;64574;48.506;-2.750;2024-03-29T13:29:29;12.50;65.50
75621;DHT22;64574;48.506;-2.750;2024-03-29T13:31:55;12.30;63.40
75621;DHT22;64574;48.506;-2.750;2024-03-29T13:34:21;12.10;62.90
75621;DHT22;64574;48.506;-2.750;2024-03-29T13:36:47;12.20;63.60
75621;DHT22;64574;48.506;-2.750;2024-03-29T13:39:13;12.20;62.40
75621;DHT22;64574;48.506;-2.750;2024-03-29T13:41:40;12.00;61.60
75621;DHT22;64574;48.506;-2.750;2024-03-29T13:44:06;12.00;60.80
75621;DHT22;64574;48.506;-2.750;2024-03-29T13:46:35;12.10;61.10
75621;DHT22;64574;48.506;-2.750;2024-03-29T13:49:01;12.30;62.40
75621;DHT22;64574;48.506;-2.750;2024-03-29T13:51:27;12.30;63.60
75621;DHT22;64574;48.506;-2.750;2024-03-29T13:53:53;12.50;61.90
75621;DHT22;64574;48.506;-2.750;2024-03-29T13:56:19;12.50;59.80
75621;DHT22;64574;48.506;-2.750;2024-03-29T13:58:45;12.50;60.30
75621;DHT22;64574;48.506;-2.750;2024-03-29T14:01:10;12.50;61.80
75621;DHT22;64574;48.506;-2.750;2024-03-29T14:03:36;12.50;62.80
75621;DHT22;64574;48.506;-2.750;2024-03-29T14:06:01;12.00;64.70
75621;DHT22;64574;48.506;-2.750;2024-03-29T14:08:28;11.90;65.90
75621;DHT22;64574;48.506;-2.750;2024-03-29T14:10:53;12.00;65.50
75621;DHT22;64574;48.506;-2.750;2024-03-29T14:13:19;12.10;62.50
75621;DHT22;64574;48.506;-2.750;2024-03-29T14:15:44;12.10;60.60
75621;DHT22;64574;48.506;-2.750;2024-03-29T14:18:10;12.10;59.80
75621;DHT22;64574;48.506;-2.750;2024-03-29T14:20:36;12.10;59.60
75621;DHT22;64574;48.506;-2.750;2024-03-29T14:23:01;12.10;60.40
75621;DHT22;64574;48.506;-2.750;2024-03-29T14:25:34;12.10;60.00
75621;DHT22;64574;48.506;-2.750;2024-03-29T14:28:02;12.10;60.50
75621;DHT22;64574;48.506;-2.750;2024-03-29T14:30:28;12.20;62.20
75621;DHT22;64574;48.506;-2.750;2024-03-29T14:32:55;12.30;61.60
75621;DHT22;64574;48.506;-2.750;2024-03-29T14:35:21;12.50;61.90
75621;DHT22;64574;48.506;-2.750;2024-03-29T14:37:47;12.50;61.70
75621;DHT22;64574;48.506;-2.750;2024-03-29T14:40:12;12.30;61.80
75621;DHT22;64574;48.506;-2.750;2024-03-29T14:42:40;12.50;62.20
75621;DHT22;64574;48.506;-2.750;2024-03-29T14:45:06;12.70;62.20
75621;DHT22;64574;48.506;-2.750;2024-03-29T14:47:32;12.80;60.30
75621;DHT22;64574;48.506;-2.750;2024-03-29T14:49:59;12.90;59.10
75621;DHT22;64574;48.506;-2.750;2024-03-29T14:52:25;12.90;58.60
75621;DHT22;64574;48.506;-2.750;2024-03-29T14:54:50;12.70;58.60
75621;DHT22;64574;48.506;-2.750;2024-03-29T14:57:16;12.50;58.40
75621;DHT22;64574;48.506;-2.750;2024-03-29T14:59:44;12.70;59.60
75621;DHT22;64574;48.506;-2.750;2024-03-29T15:02:09;12.70;59.20
75621;DHT22;64574;48.506;-2.750;2024-03-29T15:04:35;12.70;58.00
75621;DHT22;64574;48.506;-2.750;2024-03-29T15:07:02;12.80;57.40
75621;DHT22;64574;48.506;-2.750;2024-03-29T15:09:28;12.90;56.80
75621;DHT22;64574;48.506;-2.750;2024-03-29T15:11:55;13.00;56.10
75621;DHT22;64574;48.506;-2.750;2024-03-29T15:14:20;13.10;55.90
75621;DHT22;64574;48.506;-2.750;2024-03-29T15:16:46;13.00;57.00
75621;DHT22;64574;48.506;-2.750;2024-03-29T15:19:12;13.00;58.00
75621;DHT22;64574;48.506;-2.750;2024-03-29T15:21:38;12.80;59.80